createdAt,value
2023-05-09T00:00:48.350Z,59
2023-05-09T00:03:20.178Z,59
2023-05-09T00:05:51.082Z,60
2023-05-09T00:08:21.929Z,59
2023-05-09T00:10:52.256Z,60
2023-05-09T00:13:23.174Z,60
2023-05-09T00:15:53.767Z,60
2023-05-09T00:18:24.602Z,60
2023-05-09T00:20:55.916Z,61
2023-05-09T00:23:26.657Z,61
2023-05-09T00:25:57.762Z,61
2023-05-09T00:28:28.888Z,61
2023-05-09T00:30:59.612Z,61
2023-05-09T00:33:30.383Z,61
2023-05-09T00:36:01.454Z,60
2023-05-09T00:38:32.330Z,60
2023-05-09T00:41:03.409Z,61
2023-05-09T00:43:34.118Z,61
2023-05-09T00:46:04.585Z,61
2023-05-09T00:48:35.244Z,62
2023-05-09T00:51:06.348Z,63
2023-05-09T00:53:37.037Z,63
2023-05-09T00:56:07.638Z,63
2023-05-09T00:58:38.666Z,63
2023-05-09T01:01:09.643Z,64
2023-05-09T01:03:40.488Z,64
2023-05-09T01:06:11.637Z,64
2023-05-09T01:08:42.772Z,65
2023-05-09T01:11:13.850Z,65
2023-05-09T01:13:44.869Z,66
2023-05-09T01:16:15.426Z,66
2023-05-09T01:18:46.717Z,66
2023-05-09T01:21:17.669Z,66
2023-05-09T01:23:48.548Z,66
2023-05-09T01:26:19.100Z,66
2023-05-09T01:28:50.188Z,66
2023-05-09T01:31:21.304Z,66
2023-05-09T01:33:52.120Z,66
2023-05-09T01:36:22.855Z,66
2023-05-09T01:38:54.075Z,67
2023-05-09T01:41:25.263Z,66
2023-05-09T01:43:56.385Z,68
2023-05-09T01:46:31.176Z,68
2023-05-09T01:49:02.184Z,67
2023-05-09T01:51:32.822Z,69
2023-05-09T01:54:04.556Z,68
2023-05-09T01:56:39.622Z,68
2023-05-09T01:59:11.324Z,68
2023-05-09T02:01:42.310Z,68
2023-05-09T02:04:13.088Z,67
2023-05-09T02:06:43.634Z,67
2023-05-09T02:09:14.838Z,66
2023-05-09T02:11:45.499Z,68
2023-05-09T02:14:16.118Z,69
2023-05-09T02:16:47.156Z,68
2023-05-09T02:19:17.978Z,66
2023-05-09T02:21:48.754Z,67
2023-05-09T02:24:20.207Z,67
2023-05-09T02:26:51.421Z,68
2023-05-09T02:29:22.618Z,67
2023-05-09T02:31:53.378Z,69
2023-05-09T02:34:24.273Z,69
2023-05-09T02:36:55.253Z,69
2023-05-09T02:39:26.215Z,70
2023-05-09T02:41:56.575Z,70
2023-05-09T02:44:27.479Z,70
2023-05-09T02:46:58.109Z,69
2023-05-09T02:49:32.257Z,68
2023-05-09T02:51:59.741Z,68
2023-05-09T02:54:30.554Z,69
2023-05-09T02:57:01.122Z,69
2023-05-09T02:59:32.101Z,69
2023-05-09T03:02:02.848Z,69
2023-05-09T03:04:34.045Z,69
2023-05-09T03:07:05.122Z,70
2023-05-09T03:09:36.006Z,69
2023-05-09T03:12:06.921Z,69
2023-05-09T03:14:37.716Z,69
2023-05-09T03:17:08.535Z,69
2023-05-09T03:19:39.732Z,69
2023-05-09T03:22:10.794Z,69
2023-05-09T03:24:41.195Z,68
2023-05-09T03:27:11.767Z,68
2023-05-09T03:29:42.515Z,68
2023-05-09T03:32:15.099Z,68
2023-05-09T03:34:43.952Z,69
2023-05-09T03:37:14.457Z,69
2023-05-09T03:39:45.325Z,69
2023-05-09T03:42:16.057Z,68
2023-05-09T03:44:47.235Z,68
2023-05-09T03:47:18.109Z,69
2023-05-09T03:49:49.212Z,68
2023-05-09T03:52:19.923Z,67
2023-05-09T03:54:50.830Z,67
2023-05-09T03:57:21.392Z,67
2023-05-09T03:59:52.374Z,68
2023-05-09T04:02:22.799Z,69
2023-05-09T04:04:54.027Z,69
2023-05-09T04:07:25.179Z,69
2023-05-09T04:09:56.221Z,68
2023-05-09T04:12:27.053Z,68
2023-05-09T04:14:57.819Z,68
2023-05-09T04:17:28.818Z,67
2023-05-09T04:19:59.951Z,67
2023-05-09T04:22:30.516Z,68
2023-05-09T04:25:01.174Z,68
2023-05-09T04:27:31.113Z,68
2023-05-09T04:30:02.025Z,68
2023-05-09T04:32:32.532Z,68
2023-05-09T04:35:03.375Z,68
2023-05-09T04:37:34.434Z,68
2023-05-09T04:40:05.374Z,68
2023-05-09T04:42:35.841Z,68
2023-05-09T04:45:06.944Z,67
2023-05-09T04:47:37.662Z,67
2023-05-09T04:50:09.248Z,66
2023-05-09T04:52:40.644Z,66
2023-05-09T04:55:11.304Z,65
2023-05-09T04:57:41.877Z,64
2023-05-09T05:00:12.680Z,64
2023-05-09T05:02:43.226Z,64
2023-05-09T05:05:13.418Z,64
2023-05-09T05:07:44.405Z,65
2023-05-09T05:10:15.331Z,65
2023-05-09T05:12:46.221Z,65
2023-05-09T05:15:18.021Z,65
2023-05-09T05:17:49.036Z,64
2023-05-09T05:20:19.945Z,64
2023-05-09T05:22:50.910Z,64
2023-05-09T05:25:20.006Z,64
2023-05-09T05:27:50.031Z,64
2023-05-09T05:30:20.795Z,64
2023-05-09T05:32:51.111Z,64
2023-05-09T05:35:23.270Z,64
2023-05-09T05:37:53.981Z,64
2023-05-09T05:40:24.584Z,64
2023-05-09T05:42:55.065Z,64
2023-05-09T05:45:25.679Z,64
2023-05-09T05:47:56.110Z,64
2023-05-09T05:50:26.688Z,64
2023-05-09T05:52:57.312Z,64
2023-05-09T05:55:29.566Z,64
2023-05-09T05:57:59.170Z,64
2023-05-09T06:00:30.055Z,64
2023-05-09T06:02:59.453Z,64
2023-05-09T06:05:29.946Z,64
2023-05-09T06:08:00.840Z,64
2023-05-09T06:10:32.731Z,64
2023-05-09T06:13:03.230Z,63
2023-05-09T06:15:37.664Z,63
2023-05-09T06:18:08.001Z,64
2023-05-09T06:20:38.295Z,63
2023-05-09T06:23:08.822Z,63
2023-05-09T06:25:39.317Z,63
2023-05-09T06:28:09.729Z,63
2023-05-09T06:30:41.166Z,63
2023-05-09T06:33:11.371Z,62
2023-05-09T06:35:41.872Z,63
2023-05-09T06:38:12.812Z,63
2023-05-09T06:40:43.361Z,63
2023-05-09T06:43:13.673Z,64
2023-05-09T06:45:44.440Z,64
2023-05-09T06:48:19.136Z,64
2023-05-09T06:50:49.553Z,64
2023-05-09T06:53:20.140Z,65
2023-05-09T06:55:50.936Z,64
2023-05-09T06:58:21.357Z,64
2023-05-09T07:00:51.843Z,64
2023-05-09T07:03:22.707Z,64
2023-05-09T07:05:55.356Z,64
2023-05-09T07:08:27.440Z,63
2023-05-09T07:11:06.785Z,67
2023-05-09T07:13:36.766Z,66
2023-05-09T07:16:14.587Z,66
2023-05-09T07:18:48.026Z,65
2023-05-09T07:21:18.006Z,65
2023-05-09T07:23:49.622Z,65
2023-05-09T07:26:19.998Z,66
2023-05-09T07:28:50.380Z,65
2023-05-09T07:31:20.926Z,65
2023-05-09T07:33:51.310Z,65
2023-05-09T07:36:21.463Z,65
2023-05-09T07:38:52.222Z,65
2023-05-09T07:41:22.943Z,64
2023-05-09T07:43:53.368Z,64
2023-05-09T07:46:23.871Z,65
2023-05-09T07:48:57.575Z,65
2023-05-09T07:51:28.855Z,65
2023-05-09T07:53:59.772Z,65
2023-05-09T07:56:35.413Z,64
2023-05-09T07:59:06.319Z,63
2023-05-09T08:01:36.369Z,64
2023-05-09T08:04:10.217Z,64
2023-05-09T08:06:47.919Z,64
2023-05-09T08:09:18.239Z,64
2023-05-09T08:11:49.297Z,64
2023-05-09T08:14:19.832Z,63
2023-05-09T08:16:51.116Z,63
2023-05-09T08:19:24.096Z,63
2023-05-09T08:22:03.568Z,63
2023-05-09T08:24:34.005Z,62
2023-05-09T08:27:04.338Z,62
2023-05-09T08:29:34.246Z,62
2023-05-09T08:32:08.832Z,63
2023-05-09T08:34:40.545Z,62
2023-05-09T08:37:12.259Z,63
2023-05-09T08:39:50.563Z,63
2023-05-09T08:42:20.513Z,62
2023-05-09T08:44:50.989Z,62
2023-05-09T08:47:24.088Z,62
2023-05-09T08:49:55.689Z,62
2023-05-09T08:52:27.153Z,62
2023-05-09T08:54:57.937Z,62
2023-05-09T08:57:28.367Z,61
2023-05-09T08:59:58.918Z,61
2023-05-09T09:02:31.864Z,60
2023-05-09T09:05:03.329Z,60
2023-05-09T09:07:34.103Z,60
2023-05-09T09:10:14.226Z,60
2023-05-09T09:12:44.283Z,60
2023-05-09T09:15:17.387Z,58
2023-05-09T09:17:52.856Z,58
2023-05-09T09:20:24.576Z,57
2023-05-09T09:22:54.615Z,56
2023-05-09T09:25:25.938Z,56
2023-05-09T09:27:56.270Z,56
2023-05-09T09:30:26.598Z,55
2023-05-09T09:32:56.791Z,55
2023-05-09T09:35:26.707Z,55
2023-05-09T09:37:59.151Z,55
2023-05-09T09:40:28.248Z,57
2023-05-09T09:43:02.880Z,56
2023-05-09T09:45:39.475Z,57
2023-05-09T09:48:11.843Z,56
2023-05-09T09:50:46.893Z,56
2023-05-09T09:53:26.741Z,55
2023-05-09T09:55:57.986Z,55
2023-05-09T09:58:28.337Z,56
2023-05-09T10:01:03.351Z,56
2023-05-09T10:03:35.600Z,55
2023-05-09T10:06:06.167Z,55
2023-05-09T10:08:36.844Z,54
2023-05-09T10:11:09.033Z,54
2023-05-09T10:13:39.631Z,53
2023-05-09T10:16:10.691Z,54
2023-05-09T10:18:41.663Z,53
2023-05-09T10:21:14.743Z,54
2023-05-09T10:23:46.087Z,53
2023-05-09T10:26:19.669Z,54
2023-05-09T10:28:50.192Z,54
2023-05-09T10:31:21.225Z,53
2023-05-09T10:33:51.485Z,54
2023-05-09T10:36:23.857Z,54
2023-05-09T10:38:53.925Z,54
2023-05-09T10:41:24.546Z,53
2023-05-09T10:43:55.033Z,53
2023-05-09T10:46:29.344Z,54
2023-05-09T10:49:03.424Z,52
2023-05-09T10:51:33.750Z,53
2023-05-09T10:54:04.332Z,53
2023-05-09T10:56:35.024Z,54
2023-05-09T10:59:05.514Z,54
2023-05-09T11:01:36.093Z,54
2023-05-09T11:04:07.399Z,53
2023-05-09T11:06:37.885Z,54
2023-05-09T11:09:08.440Z,54
2023-05-09T11:11:39.123Z,53
2023-05-09T11:14:13.202Z,53
2023-05-09T11:16:44.776Z,54
2023-05-09T11:19:16.614Z,54
2023-05-09T11:21:47.983Z,53
2023-05-09T11:24:18.167Z,53
2023-05-09T11:26:48.928Z,53
2023-05-09T11:29:23.204Z,53
2023-05-09T11:31:53.869Z,53
2023-05-09T11:34:33.450Z,52
2023-05-09T11:37:03.989Z,53
2023-05-09T11:39:34.404Z,53
2023-05-09T11:42:04.582Z,53
2023-05-09T11:44:43.884Z,53
2023-05-09T11:47:14.151Z,53
2023-05-09T11:49:44.860Z,54
2023-05-09T11:52:15.217Z,54
2023-05-09T11:54:45.151Z,54
2023-05-09T11:57:15.665Z,54
2023-05-09T11:59:46.268Z,54
2023-05-09T12:02:20.730Z,54
2023-05-09T12:04:52.584Z,54
2023-05-09T12:07:23.261Z,53
2023-05-09T12:09:53.646Z,55
2023-05-09T12:12:27.918Z,51
2023-05-09T12:15:00.234Z,53
2023-05-09T12:17:33.430Z,53
2023-05-09T12:20:04.026Z,54
2023-05-09T12:22:36.876Z,54
2023-05-09T12:25:09.840Z,53
2023-05-09T12:27:43.381Z,53
2023-05-09T12:30:14.010Z,53
2023-05-09T12:32:44.331Z,52
2023-05-09T12:35:15.327Z,53
2023-05-09T12:37:47.978Z,52
2023-05-09T12:40:20.075Z,52
2023-05-09T12:42:50.569Z,51
2023-05-09T12:45:23.718Z,50
2023-05-09T12:48:03.196Z,52
2023-05-09T12:50:42.722Z,52
2023-05-09T12:53:13.976Z,51
2023-05-09T12:55:44.527Z,52
2023-05-09T12:58:18.329Z,51
2023-05-09T13:00:49.182Z,51
2023-05-09T13:03:22.537Z,50
2023-05-09T13:05:53.953Z,51
2023-05-09T13:08:24.121Z,51
2023-05-09T13:11:01.028Z,50
2023-05-09T13:13:25.389Z,50
2023-05-09T13:15:58.094Z,50
2023-05-09T13:18:29.418Z,49
2023-05-09T13:21:01.014Z,50
2023-05-09T13:23:31.472Z,49
2023-05-09T13:26:02.102Z,49
2023-05-09T13:28:32.461Z,49
2023-05-09T13:31:02.848Z,49
2023-05-09T13:33:32.970Z,48
2023-05-09T13:36:04.592Z,47
2023-05-09T13:38:37.776Z,47
2023-05-09T13:41:07.995Z,48
2023-05-09T13:43:38.334Z,48
2023-05-09T13:46:09.137Z,48
2023-05-09T13:48:39.879Z,47
2023-05-09T13:51:12.924Z,48
2023-05-09T13:53:43.573Z,48
2023-05-09T13:56:18.978Z,49
2023-05-09T13:58:49.738Z,49
2023-05-09T14:01:20.432Z,49
2023-05-09T14:03:51.909Z,49
2023-05-09T14:06:22.863Z,50
2023-05-09T14:08:57.068Z,49
2023-05-09T14:11:27.567Z,49
2023-05-09T14:13:58.488Z,49
2023-05-09T14:16:28.753Z,50
2023-05-09T14:18:59.187Z,50
2023-05-09T14:21:33.025Z,51
2023-05-09T14:24:03.384Z,51
2023-05-09T14:26:33.672Z,51
2023-05-09T14:29:04.087Z,51
2023-05-09T14:31:34.531Z,51
2023-05-09T14:34:04.486Z,51
2023-05-09T14:36:35.094Z,51
2023-05-09T14:39:05.300Z,50
2023-05-09T14:41:35.655Z,51
2023-05-09T14:44:09.828Z,51
2023-05-09T14:49:16.767Z,51
2023-05-09T14:51:47.560Z,51
2023-05-09T14:54:19.200Z,51
2023-05-09T14:56:48.104Z,52
2023-05-09T14:59:18.622Z,52
2023-05-09T15:01:49.031Z,52
2023-05-09T15:04:22.549Z,53
2023-05-09T15:06:53.398Z,52
2023-05-09T15:09:24.317Z,53
2023-05-09T15:11:58.803Z,53
2023-05-09T15:14:38.210Z,53
2023-05-09T15:17:09.593Z,53
2023-05-09T15:19:52.108Z,54
2023-05-09T15:22:22.750Z,53
2023-05-09T15:24:53.144Z,54
2023-05-09T15:27:29.992Z,54
2023-05-09T15:30:00.787Z,53
2023-05-09T15:32:32.139Z,54
2023-05-09T15:35:02.522Z,54
2023-05-09T15:37:35.724Z,53
2023-05-09T15:40:04.654Z,53
2023-05-09T15:42:35.095Z,54
2023-05-09T15:45:06.496Z,54
2023-05-09T15:47:39.395Z,54
2023-05-09T15:50:09.992Z,54
2023-05-09T15:52:40.215Z,54
2023-05-09T15:55:10.928Z,55
2023-05-09T15:57:43.590Z,55
2023-05-09T16:00:14.977Z,55
2023-05-09T16:02:45.357Z,55
2023-05-09T16:05:19.015Z,55
2023-05-09T16:07:54.736Z,55
2023-05-09T16:10:25.039Z,56
2023-05-09T16:12:58.960Z,56
2023-05-09T16:15:29.468Z,56
2023-05-09T16:18:00.050Z,56
2023-05-09T16:20:32.525Z,56
2023-05-09T16:23:02.840Z,56
2023-05-09T16:25:36.011Z,56
2023-05-09T16:28:06.681Z,56
2023-05-09T16:30:37.328Z,57
2023-05-09T16:33:07.759Z,57
2023-05-09T16:35:38.229Z,57
2023-05-09T16:38:08.753Z,56
2023-05-09T16:40:39.289Z,57
2023-05-09T16:43:10.674Z,57
2023-05-09T16:45:41.239Z,57
2023-05-09T16:48:11.995Z,57
2023-05-09T16:50:42.238Z,57
2023-05-09T16:53:12.544Z,57
2023-05-09T16:55:43.428Z,58
2023-05-09T16:58:13.470Z,57
2023-05-09T17:00:45.696Z,57
2023-05-09T17:03:16.248Z,57
2023-05-09T17:05:46.716Z,58
2023-05-09T17:08:19.403Z,58
2023-05-09T17:11:02.045Z,59
2023-05-09T17:13:36.938Z,59
2023-05-09T17:16:10.567Z,58
2023-05-09T17:18:41.617Z,58
2023-05-09T17:21:17.361Z,59
2023-05-09T17:23:47.491Z,59
2023-05-09T17:26:21.097Z,59
2023-05-09T17:28:51.140Z,59
2023-05-09T17:31:21.439Z,59
2023-05-09T17:33:51.445Z,59
2023-05-09T17:36:23.648Z,59
2023-05-09T17:39:02.866Z,59
2023-05-09T17:41:33.492Z,60
2023-05-09T17:44:04.193Z,60
2023-05-09T17:46:34.871Z,59
2023-05-09T17:49:05.172Z,60
2023-05-09T17:51:37.931Z,60
2023-05-09T17:54:08.061Z,60
2023-05-09T17:56:41.162Z,60
2023-05-09T17:59:11.641Z,60
2023-05-09T18:01:41.771Z,60
2023-05-09T18:04:12.910Z,60
2023-05-09T18:06:52.289Z,61
2023-05-09T18:09:22.499Z,61
2023-05-09T18:11:52.889Z,61
2023-05-09T18:14:23.221Z,61
2023-05-09T18:16:53.841Z,62
2023-05-09T18:19:25.208Z,61
2023-05-09T18:21:55.748Z,61
2023-05-09T18:24:26.279Z,62
2023-05-09T18:26:56.793Z,61
2023-05-09T18:29:27.362Z,61
2023-05-09T18:31:57.733Z,61
2023-05-09T18:34:27.882Z,62
2023-05-09T18:36:58.620Z,62
2023-05-09T18:39:29.040Z,61
2023-05-09T18:42:01.700Z,61
2023-05-09T18:44:31.954Z,62
2023-05-09T18:47:03.853Z,62
2023-05-09T18:49:33.952Z,61
2023-05-09T18:52:03.551Z,62
2023-05-09T18:54:33.892Z,62
2023-05-09T18:57:06.698Z,62
2023-05-09T18:59:38.669Z,63
2023-05-09T19:02:09.040Z,63
2023-05-09T19:04:41.830Z,63
2023-05-09T19:07:12.089Z,63
2023-05-09T19:09:42.226Z,63
2023-05-09T19:12:13.480Z,62
2023-05-09T19:14:43.586Z,63
2023-05-09T19:17:13.503Z,63
2023-05-09T19:19:43.601Z,63
2023-05-09T19:22:14.111Z,63
2023-05-09T19:24:44.004Z,63
2023-05-09T19:27:14.221Z,63
2023-05-09T19:29:44.990Z,64
2023-05-09T19:32:16.090Z,64
2023-05-09T19:34:46.599Z,64
2023-05-09T19:37:32.244Z,64
2023-05-09T19:40:05.031Z,64
2023-05-09T19:42:35.983Z,64
2023-05-09T19:45:06.458Z,63
2023-05-09T19:47:37.041Z,64
2023-05-09T19:50:07.497Z,64
2023-05-09T19:52:41.851Z,64
2023-05-09T19:55:16.230Z,64
2023-05-09T19:57:48.072Z,64
2023-05-09T20:00:18.934Z,64
2023-05-09T20:02:49.269Z,64
2023-05-09T20:05:19.504Z,64
2023-05-09T20:07:50.314Z,64
2023-05-09T20:10:21.365Z,63
2023-05-09T20:12:53.838Z,64
2023-05-09T20:15:24.586Z,64
2023-05-09T20:17:56.036Z,64
2023-05-09T20:20:26.298Z,63
2023-05-09T20:22:56.452Z,64
2023-05-09T20:25:26.606Z,63
2023-05-09T20:27:58.020Z,64
2023-05-09T20:30:27.723Z,64
2023-05-09T20:32:58.193Z,64
2023-05-09T20:35:28.396Z,63
2023-05-09T20:37:58.474Z,64
2023-05-09T20:40:29.103Z,64
2023-05-09T20:43:02.877Z,63
2023-05-09T20:45:33.048Z,64
2023-05-09T20:48:05.337Z,64
2023-05-09T20:50:40.470Z,64
2023-05-09T20:53:11.273Z,64
2023-05-09T20:55:41.484Z,64
2023-05-09T20:58:11.467Z,64
2023-05-09T21:00:41.282Z,65
2023-05-09T21:03:11.299Z,64
2023-05-09T21:05:43.036Z,65
2023-05-09T21:08:12.876Z,64
2023-05-09T21:10:43.071Z,64
2023-05-09T21:13:13.014Z,64
2023-05-09T21:15:43.273Z,65
2023-05-09T21:18:14.191Z,65
2023-05-09T21:20:46.161Z,65
2023-05-09T21:23:16.198Z,65
2023-05-09T21:25:46.183Z,65
2023-05-09T21:28:16.053Z,65
2023-05-09T21:30:47.078Z,65
2023-05-09T21:33:17.633Z,65
2023-05-09T21:35:47.360Z,65
2023-05-09T21:38:21.582Z,65
2023-05-09T21:40:51.798Z,65
2023-05-09T21:43:22.506Z,65
2023-05-09T21:46:02.207Z,65
2023-05-09T21:48:33.358Z,65
2023-05-09T21:51:03.555Z,64
2023-05-09T21:53:36.224Z,65
2023-05-09T21:56:06.272Z,65
2023-05-09T21:58:36.921Z,65
2023-05-09T22:01:07.256Z,65
2023-05-09T22:03:39.162Z,65
2023-05-09T22:06:09.215Z,65
2023-05-09T22:08:39.388Z,65
2023-05-09T22:11:11.476Z,64
2023-05-09T22:13:40.498Z,65
2023-05-09T22:16:11.792Z,64
2023-05-09T22:18:42.438Z,64
2023-05-09T22:21:15.450Z,64
2023-05-09T22:23:50.304Z,64
2023-05-09T22:26:21.263Z,65
2023-05-09T22:28:51.607Z,64
2023-05-09T22:31:22.130Z,63
2023-05-09T22:33:51.838Z,64
2023-05-09T22:36:22.485Z,64
2023-05-09T22:38:52.552Z,64
2023-05-09T22:41:26.670Z,65
2023-05-09T22:43:57.429Z,64
2023-05-09T22:46:28.395Z,64
2023-05-09T22:48:58.889Z,65
2023-05-09T22:51:29.233Z,64
2023-05-09T22:53:59.647Z,64
2023-05-09T22:56:30.084Z,64
2023-05-09T22:59:00.486Z,64
2023-05-09T23:01:30.862Z,64
2023-05-09T23:04:00.952Z,64
2023-05-09T23:06:31.574Z,64
2023-05-09T23:09:02.066Z,64
2023-05-09T23:11:32.521Z,64
2023-05-09T23:14:03.753Z,65
2023-05-09T23:16:34.700Z,66
2023-05-09T23:19:04.977Z,66
2023-05-09T23:21:35.472Z,66
2023-05-09T23:24:06.389Z,68
2023-05-09T23:26:36.773Z,68
2023-05-09T23:29:06.960Z,68
2023-05-09T23:31:37.048Z,69
2023-05-09T23:34:07.570Z,69
2023-05-09T23:36:37.739Z,69
2023-05-09T23:39:08.345Z,69
2023-05-09T23:41:38.486Z,70
2023-05-09T23:44:08.815Z,70
2023-05-09T23:46:39.074Z,70
2023-05-09T23:49:08.913Z,69
2023-05-09T23:51:39.162Z,69
2023-05-09T23:54:09.384Z,69
2023-05-09T23:56:39.273Z,70
2023-05-09T23:59:09.830Z,70
